AirNav   TITAN Aviation Fuels
 
 419 users online  

48LA Chevron Place Heliport
New Orleans, Louisiana, USA

GOING TO NEW ORLEANS?


FAA INFORMATION EFFECTIVE 08 SEPTEMBER 2022

Location

FAA Identifier: 48LA
Lat/Long: 29-57-10.7340N 090-04-23.2590W
29-57.178900N 090-04.387650W
29.9529817,-90.0731275
(estimated)
Elevation: 273 ft. / 83 m (estimated)
Variation: 03E (1985)
Time zone: UTC -5 (UTC -6 during Standard Time)
Zip code: 70112

Heliport Operations

Heliport use: Private use. Permission required prior to landing
Activation date: 03/1982
Control tower: no
ARTCC: HOUSTON CENTER
FSS: DE RIDDER FLIGHT SERVICE STATION
Attendance: UNATNDD
Wind indicator: yes
Segmented circle: no
Lights: FOR PERIMETER LGTS CALL 504-244-4100.

Heliport Communications

WX ASOS at NEW (6 nm NE): PHONE 504-245-4366
WX ASOS at MSY (10 nm W): PHONE (504)471-4486

Nearby radio navigation aids

VOR radial/distance  VOR name  Freq  Var
HRVr327/7.2HARVEY VORTAC114.1002E
RQRr105/28.0RESERVE VOR/DME110.8002E

Heliport Services

Runway Information

Helipad H1

Dimensions: 90 x 60 ft. / 27 x 18 m
Surface: concrete
ROOFTOP.
Runway edge lights: PERI
Latitude: 29-57.178900N
Longitude: 090-04.387650W
Elevation: 273.0 ft.
Traffic pattern: leftleft

Heliport Ownership and Management from official FAA records

Ownership: Privately-owned
Owner: CHEVRON USA INC.
PO BOX 26845
NEW ORLEANS, LA 70186
Phone 502-244-4100
Manager: EARL J. FIELDS
PO BOX 26845
NEW ORLEANS, LA 70186
Phone 504-244-4100

Additional Remarks

A52-H1 BLDGS SURROUND PAD.
FOR CD CTC NEW ORLEANS APCH AT 504-471-4350.

Instrument Procedures

There are no published instrument procedures at 48LA.

Some nearby airports with instrument procedures:

KNEW - Lakefront Airport (6 nm NE)
KNBG - New Orleans Naval Air Station Joint Reserve Base - Alvin Callender Field (8 nm S)
KMSY - Louis Armstrong New Orleans International Airport (10 nm W)
KASD - Slidell Airport (27 nm NE)
KAPS - Port of South Louisiana Executive Regional Airport (28 nm W)
 
Loc | Ops | Rwys | IFR | FBO | Links
Com | Nav | Svcs | Stats | Notes
Area around 48LA (Chevron Place Heliport)
 
Road maps at: MapQuest Bing Google
 
Aerial photo
No photo
 
Sectional chart

 
Airport distance calculator
Flying to Chevron Place Heliport? Find the distance to fly.

From to 48LA

Sunrise and sunset
Times for 02-Oct-2022
 Local
(UTC-5)
 Zulu
(UTC)
Morning civil twilight06:3111:31
Sunrise06:5511:55
Sunset18:4423:44
Evening civil twilight19:0800:08

Current date and time
Zulu (UTC)  02-Oct-2022 10:28:30
Local (UTC-5)  02-Oct-2022 05:28:30
 
METAR
K7N0 020956Z AUTO VRB03KT 10SM CLR 19/13 A3004 RMK AO2 SLP171 T01940128 PNO $
KNEW 
6nm N 
020953Z AUTO 03011KT 10SM CLR 21/13 A3003 RMK AO2 SLP162 T02110128
KNBG 
9nm S 
012155Z 34008KT 10SM CLR 28/09 A2994 RMK AO2 SLP136 T02780089 $
KMSY 
10nm W 
020953Z 34003KT 10SM CLR 15/14 A3003 RMK AO2 SLP171 T01500139
TAF
KNEW 
6nm N 
020521Z 0206/0306 02012KT P6SM SKC FM021500 02008KT P6SM SKC FM021900 34006KT P6SM SKC FM030100 01015KT P6SM FEW250
KNBG 
9nm S 
0207/0307 01008KT 9999 SKC QNH3003INS BECMG 0215/0217 VRB05KT 9999 SKC QNH3008INS T16/0212Z T26/0221Z FN00253
KMSY 
10nm W 
020521Z 0206/0312 VRB04KT P6SM SKC FM021500 01008KT P6SM FEW250 FM030200 36005KT P6SM FEW250
NOTAMs
Click for the latest NOTAMs
NOTAMs are issued by the DoD/FAA and will open in a separate window not controlled by AirNav.

 

 
 

Would you like to see your business listed on this page?

 If your business provides an interesting product or service to pilots, flight crews, aircraft, or users of the Chevron Place Heliport, you should consider listing it here.  To start the listing process, click on the button below
 
Add a business
 

Other Pages about Chevron Place Heliport

Update a link
 
Copyright © AirNav, LLC. All rights reserved. Privacy Policy  Contact